createdAt,value
2017-04-29T00:02:22.003Z,8.60
2017-04-29T00:04:51.087Z,8.60
2017-04-29T00:07:20.185Z,8.50
2017-04-29T00:09:49.286Z,8.50
2017-04-29T00:12:18.346Z,8.50
2017-04-29T00:14:47.435Z,8.50
2017-04-29T00:17:16.507Z,8.40
2017-04-29T00:19:45.592Z,8.40
2017-04-29T00:22:14.648Z,8.40
2017-04-29T00:24:43.740Z,8.40
2017-04-29T00:27:12.815Z,8.40
2017-04-29T00:29:42.639Z,8.30
2017-04-29T00:32:11.761Z,8.30
2017-04-29T00:34:40.805Z,8.20
2017-04-29T00:37:09.872Z,8.20
2017-04-29T00:39:38.926Z,8.10
2017-04-29T00:42:08.022Z,8.00
2017-04-29T00:44:37.085Z,8.00
2017-04-29T00:47:06.222Z,8.00
2017-04-29T00:49:35.273Z,7.90
2017-04-29T00:52:04.353Z,7.90
2017-04-29T00:54:33.442Z,7.80
2017-04-29T00:57:02.515Z,7.80
2017-04-29T00:59:31.561Z,7.80
2017-04-29T01:02:00.634Z,7.70
2017-04-29T01:04:29.686Z,7.70
2017-04-29T01:06:58.784Z,7.70
2017-04-29T01:09:27.893Z,7.70
2017-04-29T01:11:57.003Z,7.70
2017-04-29T01:14:26.051Z,7.60
2017-04-29T01:16:55.888Z,7.60
2017-04-29T01:19:24.967Z,7.60
2017-04-29T01:21:54.019Z,7.60
2017-04-29T01:24:23.107Z,7.60
2017-04-29T01:26:52.375Z,7.50
2017-04-29T01:29:22.203Z,7.40
2017-04-29T01:31:52.232Z,7.50
2017-04-29T01:34:21.311Z,7.40
2017-04-29T01:36:50.386Z,7.30
2017-04-29T01:39:20.439Z,7.20
2017-04-29T01:41:49.494Z,7.20
2017-04-29T01:44:19.340Z,7.10
2017-04-29T01:46:48.383Z,7.00
2017-04-29T01:49:17.471Z,6.90
2017-04-29T01:51:46.543Z,6.80
2017-04-29T01:54:15.583Z,6.70
2017-04-29T01:56:45.416Z,6.70
2017-04-29T01:59:15.199Z,6.60
2017-04-29T02:01:44.295Z,6.50
2017-04-29T02:04:14.097Z,6.50
2017-04-29T02:06:43.192Z,6.50
2017-04-29T02:09:12.285Z,6.50
2017-04-29T02:11:41.347Z,6.50
2017-04-29T02:14:10.439Z,6.50
2017-04-29T02:16:39.487Z,6.50
2017-04-29T02:19:09.315Z,6.50
2017-04-29T02:21:39.112Z,6.50
2017-04-29T02:24:08.959Z,6.50
2017-04-29T02:26:38.056Z,6.40
2017-04-29T02:29:07.112Z,6.40
2017-04-29T02:31:36.179Z,6.50
2017-04-29T02:34:05.274Z,6.40
2017-04-29T02:36:34.385Z,6.40
2017-04-29T02:39:03.486Z,6.40
2017-04-29T02:41:32.552Z,6.40
2017-04-29T02:44:01.656Z,6.40
2017-04-29T02:46:30.739Z,6.50
2017-04-29T02:48:59.784Z,6.50
2017-04-29T02:51:28.856Z,6.50
2017-04-29T02:53:57.915Z,6.50
2017-04-29T02:56:27.015Z,6.60
2017-04-29T02:58:56.081Z,6.60
2017-04-29T03:01:25.112Z,6.60
2017-04-29T03:03:54.201Z,6.60
2017-04-29T03:06:23.244Z,6.60
2017-04-29T03:08:52.596Z,6.60
2017-04-29T03:11:21.897Z,6.60
2017-04-29T03:13:50.988Z,6.60
2017-04-29T03:16:20.029Z,6.60
2017-04-29T03:18:49.115Z,6.50
2017-04-29T03:21:18.409Z,6.50
2017-04-29T03:23:47.439Z,6.50
2017-04-29T03:26:16.512Z,6.50
2017-04-29T03:28:45.552Z,6.50
2017-04-29T03:31:15.367Z,6.40
2017-04-29T03:33:44.436Z,6.40
2017-04-29T03:36:13.495Z,6.40
2017-04-29T03:38:42.875Z,6.40
2017-04-29T03:41:11.950Z,6.40
2017-04-29T03:43:41.740Z,6.40
2017-04-29T03:46:10.819Z,6.40
2017-04-29T03:48:39.847Z,6.40
2017-04-29T03:51:09.994Z,6.40
2017-04-29T03:53:39.061Z,6.40
2017-04-29T03:56:08.154Z,6.50
2017-04-29T03:58:37.229Z,6.50
2017-04-29T04:01:06.296Z,6.40
2017-04-29T04:03:35.405Z,6.50
2017-04-29T04:06:04.438Z,6.40
2017-04-29T04:08:33.872Z,6.50
2017-04-29T04:11:02.930Z,6.50
2017-04-29T04:13:31.985Z,6.40
2017-04-29T04:16:01.077Z,6.40
2017-04-29T04:18:30.143Z,6.40
2017-04-29T04:20:59.947Z,6.40
2017-04-29T04:23:29.764Z,6.40
2017-04-29T04:25:59.652Z,6.30
2017-04-29T04:28:29.452Z,6.30
2017-04-29T04:30:58.519Z,6.30
2017-04-29T04:33:27.572Z,6.40
2017-04-29T04:35:57.408Z,6.30
2017-04-29T04:38:26.455Z,6.30
2017-04-29T04:40:55.529Z,6.20
2017-04-29T04:43:24.576Z,6.20
2017-04-29T04:45:53.732Z,6.30
2017-04-29T04:48:22.786Z,6.20
2017-04-29T04:50:51.863Z,6.20
2017-04-29T04:53:21.682Z,6.20
2017-04-29T04:55:51.492Z,6.10
2017-04-29T04:58:21.630Z,6.20
2017-04-29T05:00:50.711Z,6.20
2017-04-29T05:03:20.544Z,6.20
2017-04-29T05:05:49.600Z,6.20
2017-04-29T05:08:18.663Z,6.20
2017-04-29T05:10:47.739Z,6.30
2017-04-29T05:13:16.780Z,6.30
2017-04-29T05:15:45.849Z,6.30
2017-04-29T05:18:14.882Z,6.40
2017-04-29T05:20:43.943Z,6.40
2017-04-29T05:23:13.217Z,6.40
2017-04-29T05:25:42.289Z,6.40
2017-04-29T05:28:12.059Z,6.40
2017-04-29T05:30:41.127Z,6.50
2017-04-29T05:33:10.187Z,6.50
2017-04-29T05:35:40.011Z,6.60
2017-04-29T05:38:09.797Z,6.70
2017-04-29T05:40:39.630Z,6.90
2017-04-29T05:43:09.415Z,6.90
2017-04-29T05:45:38.512Z,7.00
2017-04-29T05:48:07.549Z,7.00
2017-04-29T05:50:36.616Z,7.00
2017-04-29T05:53:05.688Z,7.00
2017-04-29T05:55:34.732Z,7.00
2017-04-29T05:58:03.833Z,7.00
2017-04-29T06:00:32.902Z,6.90
2017-04-29T06:03:02.333Z,6.80
2017-04-29T06:05:31.411Z,6.80
2017-04-29T06:08:01.191Z,6.60
2017-04-29T06:10:30.270Z,6.60
2017-04-29T06:12:59.321Z,6.50
2017-04-29T06:15:28.395Z,6.50
2017-04-29T06:17:57.468Z,6.60
2017-04-29T06:20:26.819Z,6.60
2017-04-29T06:22:55.871Z,6.60
2017-04-29T06:25:25.718Z,6.60
2017-04-29T06:27:54.768Z,6.60
2017-04-29T06:30:24.126Z,6.70
2017-04-29T06:32:53.246Z,6.60
2017-04-29T06:35:22.623Z,6.60
2017-04-29T06:37:51.719Z,6.50
2017-04-29T06:40:20.763Z,6.50
2017-04-29T06:42:49.832Z,6.70
2017-04-29T06:45:18.872Z,6.80
2017-04-29T06:47:47.931Z,6.90
2017-04-29T06:50:16.970Z,7.10
2017-04-29T06:52:46.301Z,7.10
2017-04-29T06:55:15.404Z,6.90
2017-04-29T06:57:44.495Z,6.80
2017-04-29T07:00:13.586Z,6.90
2017-04-29T07:02:42.998Z,7.10
2017-04-29T07:05:12.396Z,7.20
2017-04-29T07:07:41.452Z,7.30
2017-04-29T07:10:10.515Z,7.30
2017-04-29T07:12:40.423Z,7.40
2017-04-29T07:15:09.798Z,7.50
2017-04-29T07:17:38.957Z,7.70
2017-04-29T07:20:08.764Z,7.70
2017-04-29T07:22:38.611Z,7.60
2017-04-29T07:25:08.027Z,7.50
2017-04-29T07:27:37.083Z,7.30
2017-04-29T07:30:06.428Z,7.40
2017-04-29T07:32:35.474Z,7.50
2017-04-29T07:35:04.542Z,7.60
2017-04-29T07:37:33.920Z,7.60
2017-04-29T07:40:03.007Z,7.70
2017-04-29T07:42:32.824Z,8.00
2017-04-29T07:45:01.860Z,7.90
2017-04-29T07:47:30.946Z,8.10
2017-04-29T07:50:00.014Z,8.50
2017-04-29T07:52:29.044Z,8.40
2017-04-29T07:54:58.100Z,8.10
2017-04-29T07:57:27.161Z,8.20
2017-04-29T07:59:56.505Z,8.40
2017-04-29T08:02:26.318Z,8.20
2017-04-29T08:04:55.400Z,8.40
2017-04-29T08:07:25.204Z,8.20
2017-04-29T08:09:54.239Z,8.20
2017-04-29T08:12:23.321Z,8.00
2017-04-29T08:14:52.387Z,8.00
2017-04-29T08:17:21.808Z,8.10
2017-04-29T08:19:50.885Z,8.00
2017-04-29T08:22:19.917Z,8.10
2017-04-29T08:24:49.002Z,8.00
2017-04-29T08:27:18.046Z,7.70
2017-04-29T08:29:47.184Z,7.80
2017-04-29T08:32:16.290Z,7.80
2017-04-29T08:34:45.343Z,7.70
2017-04-29T08:37:14.409Z,7.40
2017-04-29T08:39:43.487Z,7.30
2017-04-29T08:42:12.551Z,7.30
2017-04-29T08:44:41.619Z,7.40
2017-04-29T08:47:10.677Z,7.30
2017-04-29T08:49:39.728Z,7.40
2017-04-29T08:52:08.755Z,7.50
2017-04-29T08:54:37.818Z,7.60
2017-04-29T08:57:06.886Z,7.70
2017-04-29T08:59:35.951Z,7.70
2017-04-29T09:02:05.023Z,7.80
2017-04-29T09:04:34.827Z,7.80
2017-04-29T09:07:04.636Z,7.90
2017-04-29T09:09:33.703Z,7.70
2017-04-29T09:12:02.752Z,7.70
2017-04-29T09:14:31.837Z,7.80
2017-04-29T09:17:01.608Z,7.80
2017-04-29T09:19:30.683Z,7.90
2017-04-29T09:21:59.742Z,8.10
2017-04-29T09:24:29.147Z,7.90
2017-04-29T09:26:58.230Z,7.90
2017-04-29T09:29:28.060Z,7.90
2017-04-29T09:31:57.097Z,8.20
2017-04-29T09:34:26.464Z,8.30
2017-04-29T09:36:55.495Z,8.40
2017-04-29T09:39:24.579Z,8.40
2017-04-29T09:41:53.661Z,8.60
2017-04-29T09:44:22.921Z,8.50
2017-04-29T09:46:52.761Z,8.50
2017-04-29T09:49:21.807Z,8.50
2017-04-29T09:51:51.153Z,8.40
2017-04-29T09:54:20.206Z,8.40
2017-04-29T09:56:49.267Z,8.70
2017-04-29T09:59:18.354Z,8.80
2017-04-29T10:01:47.428Z,8.70
2017-04-29T10:04:17.277Z,8.40
2017-04-29T10:06:46.352Z,8.60
2017-04-29T10:09:15.643Z,8.70
2017-04-29T10:11:44.723Z,9.00
2017-04-29T10:14:14.487Z,9.10
2017-04-29T10:16:43.563Z,9.20
2017-04-29T10:19:12.631Z,9.30
2017-04-29T10:21:41.712Z,9.50
2017-04-29T10:24:11.502Z,9.30
2017-04-29T10:26:40.592Z,9.30
2017-04-29T10:29:09.658Z,9.20
2017-04-29T10:31:38.732Z,8.90
2017-04-29T10:34:08.872Z,9.00
2017-04-29T10:36:38.072Z,9.20
2017-04-29T10:39:07.170Z,9.30
2017-04-29T10:41:36.439Z,9.20
2017-04-29T10:44:05.712Z,9.30
2017-04-29T10:46:34.739Z,9.00
2017-04-29T10:49:04.564Z,8.90
2017-04-29T10:51:33.604Z,8.80
2017-04-29T10:54:02.699Z,8.90
2017-04-29T10:56:31.936Z,9.00
2017-04-29T10:59:00.972Z,9.20
2017-04-29T11:01:30.044Z,9.40
2017-04-29T11:03:59.807Z,9.00
2017-04-29T11:06:28.871Z,9.00
2017-04-29T11:08:58.147Z,9.20
2017-04-29T11:11:27.934Z,9.20
2017-04-29T11:13:56.960Z,9.20
2017-04-29T11:16:26.091Z,9.50
2017-04-29T11:18:55.136Z,9.40
2017-04-29T11:21:24.955Z,9.70
2017-04-29T11:23:54.012Z,9.70
2017-04-29T11:26:23.082Z,9.60
2017-04-29T11:28:52.135Z,9.90
2017-04-29T11:31:21.948Z,10.10
2017-04-29T11:33:52.081Z,10.30
2017-04-29T11:36:21.126Z,10.30
2017-04-29T11:38:50.224Z,10.00
2017-04-29T11:41:19.252Z,9.70
2017-04-29T11:43:49.073Z,9.80
2017-04-29T11:46:18.115Z,10.20
2017-04-29T11:48:47.193Z,10.00
2017-04-29T11:51:16.249Z,10.10
2017-04-29T11:53:46.072Z,10.00
2017-04-29T11:56:15.150Z,9.90
2017-04-29T11:58:44.974Z,9.80
2017-04-29T12:01:14.044Z,9.70
2017-04-29T12:03:43.112Z,9.70
2017-04-29T12:06:12.140Z,9.60
2017-04-29T12:08:41.212Z,9.70
2017-04-29T12:11:10.259Z,9.40
2017-04-29T12:13:39.351Z,9.30
2017-04-29T12:16:08.660Z,9.10
2017-04-29T12:18:37.719Z,9.10
2017-04-29T12:21:06.750Z,9.50
2017-04-29T12:23:35.835Z,9.90
2017-04-29T12:26:05.616Z,10.00
2017-04-29T12:28:34.709Z,10.00
2017-04-29T12:31:03.759Z,9.50
2017-04-29T12:33:32.812Z,9.60
2017-04-29T12:36:01.887Z,10.10
2017-04-29T12:38:30.929Z,10.30
2017-04-29T12:41:00.024Z,10.00
2017-04-29T12:43:29.068Z,9.80
2017-04-29T12:45:58.133Z,9.50
2017-04-29T12:48:27.182Z,9.40
2017-04-29T12:50:56.523Z,9.40
2017-04-29T12:53:25.653Z,9.30
2017-04-29T12:55:54.766Z,9.30
2017-04-29T12:58:23.796Z,9.40
2017-04-29T13:00:52.880Z,9.40
2017-04-29T13:03:21.953Z,9.30
2017-04-29T13:05:51.033Z,9.40
2017-04-29T13:08:20.096Z,9.80
2017-04-29T13:10:49.132Z,10.10
2017-04-29T13:13:18.192Z,10.40
2017-04-29T13:15:47.256Z,11.10
2017-04-29T13:18:17.103Z,11.20
2017-04-29T13:20:46.126Z,11.40
2017-04-29T13:23:15.200Z,11.50
2017-04-29T13:25:44.259Z,10.50
2017-04-29T13:28:14.068Z,10.30
2017-04-29T13:30:43.839Z,10.20
2017-04-29T13:33:12.921Z,10.20
2017-04-29T13:35:41.965Z,10.40
2017-04-29T13:38:11.788Z,10.40
2017-04-29T13:40:40.848Z,10.50
2017-04-29T13:43:09.932Z,10.60
2017-04-29T13:45:38.975Z,10.90
2017-04-29T13:48:08.795Z,11.30
2017-04-29T13:50:37.851Z,12.00
2017-04-29T13:53:06.964Z,12.60
2017-04-29T13:55:36.776Z,12.70
2017-04-29T13:58:06.596Z,12.40
2017-04-29T14:00:35.639Z,12.00
2017-04-29T14:03:04.750Z,11.80
2017-04-29T14:05:33.834Z,11.60
2017-04-29T14:08:02.906Z,11.40
2017-04-29T14:10:31.988Z,11.30
2017-04-29T14:13:01.770Z,11.20
2017-04-29T14:15:30.868Z,10.90
2017-04-29T14:17:59.927Z,10.90
2017-04-29T14:20:29.032Z,10.70
2017-04-29T14:22:58.062Z,10.80
2017-04-29T14:25:27.131Z,10.90
2017-04-29T14:27:56.220Z,10.80
2017-04-29T14:30:25.268Z,10.50
2017-04-29T14:32:54.365Z,9.90
2017-04-29T14:35:24.170Z,9.80
2017-04-29T14:37:53.205Z,9.90
2017-04-29T14:40:22.264Z,10.30
2017-04-29T14:42:52.053Z,11.20
2017-04-29T14:45:21.144Z,12.10
2017-04-29T14:47:50.492Z,13.00
2017-04-29T14:50:19.591Z,13.50
2017-04-29T14:52:48.890Z,14.10
2017-04-29T14:55:18.707Z,14.50
2017-04-29T14:57:48.002Z,14.80
2017-04-29T15:00:17.087Z,15.40
2017-04-29T15:02:46.149Z,16.30
2017-04-29T15:05:15.231Z,16.90
2017-04-29T15:07:44.291Z,17.00
2017-04-29T15:10:13.371Z,16.90
2017-04-29T15:12:42.451Z,16.00
2017-04-29T15:15:11.496Z,15.50
2017-04-29T15:17:40.596Z,15.00
2017-04-29T15:20:09.632Z,15.20
2017-04-29T15:22:38.720Z,16.30
2017-04-29T15:25:07.751Z,17.10
2017-04-29T15:27:36.837Z,16.90
2017-04-29T15:30:06.642Z,15.90
2017-04-29T15:32:35.702Z,14.20
2017-04-29T15:35:05.059Z,13.80
2017-04-29T15:37:34.116Z,14.30
2017-04-29T15:40:03.195Z,15.50
2017-04-29T15:42:32.299Z,15.50
2017-04-29T15:45:01.343Z,14.00
2017-04-29T15:47:30.402Z,13.70
2017-04-29T15:50:00.200Z,14.50
2017-04-29T15:52:29.289Z,15.30
2017-04-29T15:54:58.362Z,15.40
2017-04-29T15:57:27.436Z,15.60
2017-04-29T15:59:56.509Z,15.80
2017-04-29T16:02:25.556Z,15.70
2017-04-29T16:04:54.625Z,15.30
2017-04-29T16:07:23.927Z,14.90
2017-04-29T16:09:53.735Z,14.60
2017-04-29T16:12:22.771Z,14.10
2017-04-29T16:14:52.142Z,13.60
2017-04-29T16:17:21.209Z,13.20
2017-04-29T16:19:50.992Z,13.20
2017-04-29T16:22:20.063Z,12.90
2017-04-29T16:24:49.138Z,12.10
2017-04-29T16:27:18.213Z,11.70
2017-04-29T16:29:48.003Z,11.40
2017-04-29T16:32:17.080Z,11.40
2017-04-29T16:34:46.121Z,11.30
2017-04-29T16:37:16.527Z,10.90
2017-04-29T16:39:45.568Z,10.80
2017-04-29T16:42:14.956Z,10.70
2017-04-29T16:44:44.257Z,10.90
2017-04-29T16:47:13.349Z,11.10
2017-04-29T16:49:43.122Z,10.90
2017-04-29T16:52:12.181Z,10.60
2017-04-29T16:54:41.264Z,10.40
2017-04-29T16:57:10.291Z,10.40
2017-04-29T16:59:39.432Z,10.70
2017-04-29T17:02:09.208Z,11.90
2017-04-29T17:04:38.296Z,13.70
2017-04-29T17:07:07.344Z,15.40
2017-04-29T17:09:37.173Z,17.00
2017-04-29T17:12:06.239Z,17.40
2017-04-29T17:14:35.322Z,17.50
2017-04-29T17:17:04.359Z,17.30
2017-04-29T17:19:33.679Z,16.60
2017-04-29T17:22:03.056Z,16.20
2017-04-29T17:24:32.099Z,17.90
2017-04-29T17:27:01.185Z,19.00
2017-04-29T17:29:30.237Z,20.00
2017-04-29T17:32:00.056Z,20.60
2017-04-29T17:34:29.354Z,20.20
2017-04-29T17:36:58.436Z,20.50
2017-04-29T17:39:28.247Z,19.80
2017-04-29T17:41:58.084Z,20.00
2017-04-29T17:44:27.156Z,19.60
2017-04-29T17:46:56.926Z,19.10
2017-04-29T17:49:26.029Z,17.80
2017-04-29T17:51:56.265Z,15.70
2017-04-29T17:54:25.335Z,14.30
2017-04-29T17:56:54.367Z,12.80
2017-04-29T17:59:24.196Z,12.30
2017-04-29T18:01:53.982Z,11.90
2017-04-29T18:04:24.140Z,11.20
2017-04-29T18:06:53.205Z,10.70
2017-04-29T18:09:22.268Z,10.00
2017-04-29T18:11:51.355Z,9.70
2017-04-29T18:14:20.375Z,9.60
2017-04-29T18:16:49.478Z,9.40
2017-04-29T18:19:19.272Z,9.40
2017-04-29T18:21:48.358Z,9.20
2017-04-29T18:24:17.380Z,9.00
2017-04-29T18:26:46.455Z,9.00
2017-04-29T18:29:15.532Z,9.00
2017-04-29T18:31:44.911Z,9.00
2017-04-29T18:34:14.317Z,8.90
2017-04-29T18:36:44.093Z,8.90
2017-04-29T18:39:13.186Z,8.80
2017-04-29T18:41:42.220Z,8.80
2017-04-29T18:44:12.460Z,8.70
2017-04-29T18:46:42.852Z,8.60
2017-04-29T18:49:13.368Z,8.70
2017-04-29T18:51:49.965Z,8.70
2017-04-29T18:54:24.483Z,8.70
2017-04-29T18:56:55.851Z,8.60
2017-04-29T18:59:29.873Z,8.50
2017-04-29T19:02:02.855Z,8.50
2017-04-29T19:04:38.523Z,8.40
2017-04-29T19:07:09.222Z,8.40
2017-04-29T19:09:39.709Z,8.30
2017-04-29T19:12:09.764Z,8.20
2017-04-29T19:14:40.552Z,8.20
2017-04-29T19:17:10.510Z,8.20
2017-04-29T19:19:40.550Z,8.10
2017-04-29T19:22:11.234Z,8.00
2017-04-29T19:24:41.365Z,7.90
2017-04-29T19:27:11.408Z,7.90
2017-04-29T19:29:42.091Z,7.90
2017-04-29T19:32:12.113Z,7.80
2017-04-29T19:34:42.079Z,7.80
2017-04-29T19:37:12.866Z,7.70
2017-04-29T19:39:42.802Z,7.60
2017-04-29T19:42:12.833Z,7.60
2017-04-29T19:44:42.886Z,7.50
2017-04-29T19:47:12.978Z,7.50
2017-04-29T19:49:42.921Z,7.50
2017-04-29T19:52:13.399Z,7.40
2017-04-29T19:54:43.435Z,7.30
2017-04-29T19:57:13.385Z,7.30
2017-04-29T19:59:43.430Z,7.20
2017-04-29T20:02:13.978Z,7.10
2017-04-29T20:04:44.310Z,7.10
2017-04-29T20:07:14.372Z,7.00
2017-04-29T20:09:44.349Z,7.00
2017-04-29T20:12:14.835Z,7.00
2017-04-29T20:14:44.847Z,7.00
2017-04-29T20:17:14.938Z,7.00
2017-04-29T20:19:45.732Z,6.90
2017-04-29T20:22:15.020Z,6.90
2017-04-29T20:24:44.144Z,6.90
2017-04-29T20:27:13.990Z,6.80
2017-04-29T20:29:43.497Z,6.80
2017-04-29T20:32:12.535Z,6.80
2017-04-29T20:34:41.614Z,6.80
2017-04-29T20:37:10.675Z,6.70
2017-04-29T20:39:39.774Z,6.70
2017-04-29T20:42:08.835Z,6.60
2017-04-29T20:44:37.922Z,6.60
2017-04-29T20:47:07.275Z,6.50
2017-04-29T20:49:36.349Z,6.50
2017-04-29T20:52:06.160Z,6.40
2017-04-29T20:54:35.945Z,6.30
2017-04-29T20:57:05.298Z,6.20
2017-04-29T20:59:34.355Z,6.10
2017-04-29T21:02:04.744Z,6.10
2017-04-29T21:04:37.908Z,6.00
2017-04-29T21:07:09.374Z,6.00
2017-04-29T21:09:39.761Z,6.00
2017-04-29T21:12:10.657Z,5.90
2017-04-29T21:14:39.743Z,5.90
2017-04-29T21:17:08.804Z,5.90
2017-04-29T21:19:37.897Z,5.90
2017-04-29T21:22:07.676Z,5.90
2017-04-29T21:24:36.757Z,5.80
2017-04-29T21:27:05.866Z,5.80
2017-04-29T21:29:34.893Z,5.80
2017-04-29T21:32:04.015Z,5.80
2017-04-29T21:34:33.087Z,5.70
2017-04-29T21:37:02.410Z,5.60
2017-04-29T21:39:31.486Z,5.60
2017-04-29T21:42:01.301Z,5.50
2017-04-29T21:44:30.360Z,5.60
2017-04-29T21:46:59.434Z,5.60
2017-04-29T21:49:28.526Z,5.50
2017-04-29T21:51:57.553Z,5.50
2017-04-29T21:54:27.404Z,5.40
2017-04-29T21:56:56.451Z,5.40
2017-04-29T21:59:25.516Z,5.30
2017-04-29T22:01:54.553Z,5.30
2017-04-29T22:04:23.657Z,5.20
2017-04-29T22:06:52.778Z,5.20
2017-04-29T22:09:21.864Z,5.20
2017-04-29T22:11:51.659Z,5.10
2017-04-29T22:14:20.738Z,5.10
2017-04-29T22:16:49.832Z,5.10
2017-04-29T22:19:18.893Z,5.00
2017-04-29T22:21:48.019Z,5.00
2017-04-29T22:24:17.062Z,5.00
2017-04-29T22:26:46.892Z,5.00
2017-04-29T22:29:15.935Z,4.90
2017-04-29T22:31:44.996Z,4.90
2017-04-29T22:34:14.079Z,4.90
2017-04-29T22:36:43.163Z,4.90
2017-04-29T22:39:12.275Z,4.90
2017-04-29T22:41:41.327Z,4.80
2017-04-29T22:44:10.668Z,4.90
2017-04-29T22:46:39.719Z,4.80
2017-04-29T22:49:08.812Z,4.70
2017-04-29T22:51:37.888Z,4.70
2017-04-29T22:54:06.935Z,4.70
2017-04-29T22:56:36.027Z,4.70
2017-04-29T22:59:05.842Z,4.70
2017-04-29T23:01:35.642Z,4.60
2017-04-29T23:04:05.480Z,4.60
2017-04-29T23:06:34.592Z,4.60
2017-04-29T23:09:03.880Z,4.50
2017-04-29T23:11:32.950Z,4.50
2017-04-29T23:14:02.959Z,4.50
2017-04-29T23:16:32.824Z,4.50
2017-04-29T23:19:01.867Z,4.50
2017-04-29T23:21:31.711Z,4.40
2017-04-29T23:24:01.495Z,4.40
2017-04-29T23:26:30.567Z,4.30
2017-04-29T23:28:59.655Z,4.30
2017-04-29T23:31:28.695Z,4.30
2017-04-29T23:33:57.807Z,4.30
2017-04-29T23:36:26.878Z,4.30
2017-04-29T23:38:56.724Z,4.20
2017-04-29T23:41:25.827Z,4.20
2017-04-29T23:43:54.885Z,4.20
2017-04-29T23:46:24.730Z,4.10
2017-04-29T23:48:53.791Z,4.00
2017-04-29T23:51:23.626Z,4.00
2017-04-29T23:53:52.713Z,4.00
2017-04-29T23:56:21.770Z,4.00
2017-04-29T23:58:51.133Z,4.00
